sensor_id;sensor_type;location;lat;lon;timestamp;temperature;humidity
19003;DHT22;9634;51.040;13.794;2023-01-19T00:01:29;-2.00;99.90
19003;DHT22;9634;51.040;13.794;2023-01-19T00:06:31;-1.90;99.90
19003;DHT22;9634;51.040;13.794;2023-01-19T00:11:35;-1.90;99.90
19003;DHT22;9634;51.040;13.794;2023-01-19T00:16:37;-2.00;99.90
19003;DHT22;9634;51.040;13.794;2023-01-19T00:21:40;-2.20;99.90
19003;DHT22;9634;51.040;13.794;2023-01-19T00:26:43;-2.30;99.90
19003;DHT22;9634;51.040;13.794;2023-01-19T00:31:45;-2.40;99.90
19003;DHT22;9634;51.040;13.794;2023-01-19T00:36:48;-2.60;99.90
19003;DHT22;9634;51.040;13.794;2023-01-19T00:41:51;-2.50;99.90
19003;DHT22;9634;51.040;13.794;2023-01-19T00:47:11;-2.50;99.90
19003;DHT22;9634;51.040;13.794;2023-01-19T00:52:13;-2.60;99.90
19003;DHT22;9634;51.040;13.794;2023-01-19T00:57:17;-2.60;99.90
19003;DHT22;9634;51.040;13.794;2023-01-19T01:02:19;-2.70;99.90
19003;DHT22;9634;51.040;13.794;2023-01-19T01:07:21;-2.60;99.90
19003;DHT22;9634;51.040;13.794;2023-01-19T01:12:25;-2.70;99.90
19003;DHT22;9634;51.040;13.794;2023-01-19T01:17:28;-2.80;99.90
19003;DHT22;9634;51.040;13.794;2023-01-19T01:22:30;-2.70;99.90
19003;DHT22;9634;51.040;13.794;2023-01-19T01:27:34;-2.90;99.90
19003;DHT22;9634;51.040;13.794;2023-01-19T01:32:36;-2.80;99.90
19003;DHT22;9634;51.040;13.794;2023-01-19T01:37:39;-2.90;99.90
19003;DHT22;9634;51.040;13.794;2023-01-19T01:42:44;-3.20;99.90
19003;DHT22;9634;51.040;13.794;2023-01-19T01:47:47;-3.20;99.90
19003;DHT22;9634;51.040;13.794;2023-01-19T01:52:53;-3.20;99.90
19003;DHT22;9634;51.040;13.794;2023-01-19T01:58:02;-3.30;99.90
19003;DHT22;9634;51.040;13.794;2023-01-19T02:03:05;-3.30;99.90
19003;DHT22;9634;51.040;13.794;2023-01-19T02:08:10;-3.30;99.90
19003;DHT22;9634;51.040;13.794;2023-01-19T02:13:34;-3.30;99.90
19003;DHT22;9634;51.040;13.794;2023-01-19T02:18:37;-3.30;99.90
19003;DHT22;9634;51.040;13.794;2023-01-19T02:23:43;-3.40;99.90
19003;DHT22;9634;51.040;13.794;2023-01-19T02:28:49;-3.50;99.90
19003;DHT22;9634;51.040;13.794;2023-01-19T02:33:53;-3.60;99.90
19003;DHT22;9634;51.040;13.794;2023-01-19T02:38:59;-3.40;99.90
19003;DHT22;9634;51.040;13.794;2023-01-19T02:44:02;-3.30;99.90
19003;DHT22;9634;51.040;13.794;2023-01-19T02:49:05;-3.50;99.90
19003;DHT22;9634;51.040;13.794;2023-01-19T02:54:17;-3.70;99.90
19003;DHT22;9634;51.040;13.794;2023-01-19T02:59:37;-3.90;99.90
19003;DHT22;9634;51.040;13.794;2023-01-19T03:04:56;-4.00;99.90
19003;DHT22;9634;51.040;13.794;2023-01-19T03:10:06;-4.10;99.90
19003;DHT22;9634;51.040;13.794;2023-01-19T03:15:16;-4.10;99.90
19003;DHT22;9634;51.040;13.794;2023-01-19T03:20:22;-4.00;99.90
19003;DHT22;9634;51.040;13.794;2023-01-19T03:25:27;-4.00;99.90
19003;DHT22;9634;51.040;13.794;2023-01-19T03:30:34;-4.10;99.90
19003;DHT22;9634;51.040;13.794;2023-01-19T03:35:42;-3.70;99.90
19003;DHT22;9634;51.040;13.794;2023-01-19T03:40:46;-3.50;99.90
19003;DHT22;9634;51.040;13.794;2023-01-19T03:45:50;-3.40;99.90
19003;DHT22;9634;51.040;13.794;2023-01-19T03:50:54;-3.70;99.90
19003;DHT22;9634;51.040;13.794;2023-01-19T03:55:58;-3.90;99.90
19003;DHT22;9634;51.040;13.794;2023-01-19T04:01:00;-4.10;99.90
19003;DHT22;9634;51.040;13.794;2023-01-19T04:06:04;-4.20;99.90
19003;DHT22;9634;51.040;13.794;2023-01-19T04:11:07;-4.40;99.90
19003;DHT22;9634;51.040;13.794;2023-01-19T04:16:10;-4.50;99.90
19003;DHT22;9634;51.040;13.794;2023-01-19T04:21:12;-4.60;99.90
19003;DHT22;9634;51.040;13.794;2023-01-19T04:26:16;-4.50;99.90
19003;DHT22;9634;51.040;13.794;2023-01-19T04:31:18;-4.50;99.90
19003;DHT22;9634;51.040;13.794;2023-01-19T04:36:22;-4.60;99.90
19003;DHT22;9634;51.040;13.794;2023-01-19T04:41:26;-4.60;99.90
19003;DHT22;9634;51.040;13.794;2023-01-19T04:46:28;-4.60;99.90
19003;DHT22;9634;51.040;13.794;2023-01-19T04:51:30;-4.80;99.90
19003;DHT22;9634;51.040;13.794;2023-01-19T04:56:35;-4.80;99.90
19003;DHT22;9634;51.040;13.794;2023-01-19T05:01:38;-4.70;99.90
19003;DHT22;9634;51.040;13.794;2023-01-19T05:06:40;-4.70;99.90
19003;DHT22;9634;51.040;13.794;2023-01-19T05:11:44;-4.60;99.90
19003;DHT22;9634;51.040;13.794;2023-01-19T05:16:46;-4.20;99.90
19003;DHT22;9634;51.040;13.794;2023-01-19T05:21:48;-4.20;99.90
19003;DHT22;9634;51.040;13.794;2023-01-19T05:26:52;-4.30;99.90
19003;DHT22;9634;51.040;13.794;2023-01-19T05:31:54;-4.60;99.90
19003;DHT22;9634;51.040;13.794;2023-01-19T05:36:57;-4.90;99.90
19003;DHT22;9634;51.040;13.794;2023-01-19T05:42:01;-5.00;99.90
19003;DHT22;9634;51.040;13.794;2023-01-19T05:47:03;-5.10;99.90
19003;DHT22;9634;51.040;13.794;2023-01-19T05:52:06;-5.20;99.90
19003;DHT22;9634;51.040;13.794;2023-01-19T05:57:09;-5.10;99.90
19003;DHT22;9634;51.040;13.794;2023-01-19T06:02:12;-4.90;99.90
19003;DHT22;9634;51.040;13.794;2023-01-19T06:07:14;-4.60;99.90
19003;DHT22;9634;51.040;13.794;2023-01-19T06:12:18;-4.80;99.90
19003;DHT22;9634;51.040;13.794;2023-01-19T06:17:20;-4.80;99.90
19003;DHT22;9634;51.040;13.794;2023-01-19T06:22:22;-4.90;99.90
19003;DHT22;9634;51.040;13.794;2023-01-19T06:27:26;-4.80;99.90
19003;DHT22;9634;51.040;13.794;2023-01-19T06:32:28;-4.80;99.90
19003;DHT22;9634;51.040;13.794;2023-01-19T06:37:30;-4.80;99.90
19003;DHT22;9634;51.040;13.794;2023-01-19T06:42:34;-4.90;99.90
19003;DHT22;9634;51.040;13.794;2023-01-19T06:47:36;-4.90;99.90
19003;DHT22;9634;51.040;13.794;2023-01-19T06:52:39;-4.80;99.90
19003;DHT22;9634;51.040;13.794;2023-01-19T06:57:43;-4.70;99.90
19003;DHT22;9634;51.040;13.794;2023-01-19T07:02:45;-4.60;99.90
19003;DHT22;9634;51.040;13.794;2023-01-19T07:07:51;-4.70;99.90
19003;DHT22;9634;51.040;13.794;2023-01-19T07:12:57;-4.70;99.90
19003;DHT22;9634;51.040;13.794;2023-01-19T07:17:59;-4.60;99.90
19003;DHT22;9634;51.040;13.794;2023-01-19T07:23:05;-4.60;99.90
19003;DHT22;9634;51.040;13.794;2023-01-19T07:28:08;-4.60;99.90
19003;DHT22;9634;51.040;13.794;2023-01-19T07:33:12;-4.30;99.90
19003;DHT22;9634;51.040;13.794;2023-01-19T07:38:15;-4.20;99.90
19003;DHT22;9634;51.040;13.794;2023-01-19T07:43:19;-4.10;99.90
19003;DHT22;9634;51.040;13.794;2023-01-19T07:48:22;-3.60;99.90
19003;DHT22;9634;51.040;13.794;2023-01-19T07:53:24;-2.60;99.90
19003;DHT22;9634;51.040;13.794;2023-01-19T07:58:27;-1.90;99.90
19003;DHT22;9634;51.040;13.794;2023-01-19T08:03:29;-1.50;99.90
19003;DHT22;9634;51.040;13.794;2023-01-19T08:08:33;-0.80;99.90
19003;DHT22;9634;51.040;13.794;2023-01-19T08:13:37;-0.30;99.90
19003;DHT22;9634;51.040;13.794;2023-01-19T08:18:39;-0.20;99.90
19003;DHT22;9634;51.040;13.794;2023-01-19T08:23:42;0.40;99.90
19003;DHT22;9634;51.040;13.794;2023-01-19T08:28:46;0.80;99.90
19003;DHT22;9634;51.040;13.794;2023-01-19T08:33:48;0.90;99.90
19003;DHT22;9634;51.040;13.794;2023-01-19T08:38:50;2.00;99.90
19003;DHT22;9634;51.040;13.794;2023-01-19T08:43:54;2.70;99.90
19003;DHT22;9634;51.040;13.794;2023-01-19T08:48:57;4.40;99.90
19003;DHT22;9634;51.040;13.794;2023-01-19T08:53:59;5.20;91.30
19003;DHT22;9634;51.040;13.794;2023-01-19T08:59:03;5.80;84.00
19003;DHT22;9634;51.040;13.794;2023-01-19T09:04:05;6.70;67.80
19003;DHT22;9634;51.040;13.794;2023-01-19T09:09:07;8.50;56.90
19003;DHT22;9634;51.040;13.794;2023-01-19T09:14:11;9.80;47.40
19003;DHT22;9634;51.040;13.794;2023-01-19T09:19:13;10.60;39.40
19003;DHT22;9634;51.040;13.794;2023-01-19T09:24:16;10.90;35.60
19003;DHT22;9634;51.040;13.794;2023-01-19T09:29:19;11.50;32.50
19003;DHT22;9634;51.040;13.794;2023-01-19T09:34:22;11.80;31.20
19003;DHT22;9634;51.040;13.794;2023-01-19T09:39:25;12.00;29.70
19003;DHT22;9634;51.040;13.794;2023-01-19T09:44:32;12.00;29.00
19003;DHT22;9634;51.040;13.794;2023-01-19T09:49:39;11.70;29.00
19003;DHT22;9634;51.040;13.794;2023-01-19T09:54:46;12.10;28.30
19003;DHT22;9634;51.040;13.794;2023-01-19T09:59:54;12.80;26.90
19003;DHT22;9634;51.040;13.794;2023-01-19T10:05:00;12.10;28.00
19003;DHT22;9634;51.040;13.794;2023-01-19T10:10:17;12.80;26.80
19003;DHT22;9634;51.040;13.794;2023-01-19T10:15:29;13.30;25.70
19003;DHT22;9634;51.040;13.794;2023-01-19T10:20:36;12.70;26.10
19003;DHT22;9634;51.040;13.794;2023-01-19T10:25:39;13.70;25.20
19003;DHT22;9634;51.040;13.794;2023-01-19T10:30:46;15.00;22.90
19003;DHT22;9634;51.040;13.794;2023-01-19T10:35:49;15.30;22.40
19003;DHT22;9634;51.040;13.794;2023-01-19T10:40:55;16.70;20.70
19003;DHT22;9634;51.040;13.794;2023-01-19T10:45:59;17.30;19.40
19003;DHT22;9634;51.040;13.794;2023-01-19T10:51:03;18.80;17.50
19003;DHT22;9634;51.040;13.794;2023-01-19T10:56:12;19.50;15.70
19003;DHT22;9634;51.040;13.794;2023-01-19T11:01:19;20.40;14.30
19003;DHT22;9634;51.040;13.794;2023-01-19T11:06:24;20.10;14.10
19003;DHT22;9634;51.040;13.794;2023-01-19T11:11:27;22.20;13.30
19003;DHT22;9634;51.040;13.794;2023-01-19T11:16:34;23.20;10.80
19003;DHT22;9634;51.040;13.794;2023-01-19T11:21:37;23.80;9.90
19003;DHT22;9634;51.040;13.794;2023-01-19T11:26:42;24.00;23.60
19003;DHT22;9634;51.040;13.794;2023-01-19T11:31:48;23.80;25.20
19003;DHT22;9634;51.040;13.794;2023-01-19T11:36:56;23.30;25.70
19003;DHT22;9634;51.040;13.794;2023-01-19T11:42:01;21.50;26.50
19003;DHT22;9634;51.040;13.794;2023-01-19T11:47:11;20.60;28.30
19003;DHT22;9634;51.040;13.794;2023-01-19T11:52:21;20.10;29.20
19003;DHT22;9634;51.040;13.794;2023-01-19T11:57:26;19.80;29.30
19003;DHT22;9634;51.040;13.794;2023-01-19T12:02:40;19.40;24.20
19003;DHT22;9634;51.040;13.794;2023-01-19T12:07:44;18.40;25.40
19003;DHT22;9634;51.040;13.794;2023-01-19T12:12:48;18.70;22.20
19003;DHT22;9634;51.040;13.794;2023-01-19T12:17:56;19.00;25.50
19003;DHT22;9634;51.040;13.794;2023-01-19T12:23:06;21.00;21.10
19003;DHT22;9634;51.040;13.794;2023-01-19T12:28:16;21.70;19.70
19003;DHT22;9634;51.040;13.794;2023-01-19T12:33:22;22.50;20.20
19003;DHT22;9634;51.040;13.794;2023-01-19T12:38:40;22.00;20.00
19003;DHT22;9634;51.040;13.794;2023-01-19T12:43:43;21.60;18.70
19003;DHT22;9634;51.040;13.794;2023-01-19T12:48:47;20.20;19.10
19003;DHT22;9634;51.040;13.794;2023-01-19T12:53:51;20.50;18.50
19003;DHT22;9634;51.040;13.794;2023-01-19T12:58:54;19.50;18.50
19003;DHT22;9634;51.040;13.794;2023-01-19T13:04:02;18.20;19.60
19003;DHT22;9634;51.040;13.794;2023-01-19T13:09:27;17.40;19.80
19003;DHT22;9634;51.040;13.794;2023-01-19T13:14:35;17.50;20.10
19003;DHT22;9634;51.040;13.794;2023-01-19T13:19:48;17.40;19.80
19003;DHT22;9634;51.040;13.794;2023-01-19T13:25:06;16.80;20.40
19003;DHT22;9634;51.040;13.794;2023-01-19T13:30:10;15.60;12.50
19003;DHT22;9634;51.040;13.794;2023-01-19T13:35:16;16.10;13.20
19003;DHT22;9634;51.040;13.794;2023-01-19T13:40:22;17.50;12.10
19003;DHT22;9634;51.040;13.794;2023-01-19T13:45:28;16.70;11.80
19003;DHT22;9634;51.040;13.794;2023-01-19T13:50:36;17.40;11.80
19003;DHT22;9634;51.040;13.794;2023-01-19T13:55:39;17.50;11.90
19003;DHT22;9634;51.040;13.794;2023-01-19T14:00:44;17.90;11.50
19003;DHT22;9634;51.040;13.794;2023-01-19T14:05:50;18.20;11.40
19003;DHT22;9634;51.040;13.794;2023-01-19T14:11:02;18.30;11.00
19003;DHT22;9634;51.040;13.794;2023-01-19T14:16:06;18.50;10.80
19003;DHT22;9634;51.040;13.794;2023-01-19T14:21:11;19.00;10.90
19003;DHT22;9634;51.040;13.794;2023-01-19T14:26:39;16.80;11.90
19003;DHT22;9634;51.040;13.794;2023-01-19T14:31:43;13.10;14.70
19003;DHT22;9634;51.040;13.794;2023-01-19T14:36:49;10.80;18.30
19003;DHT22;9634;51.040;13.794;2023-01-19T14:41:54;9.50;22.50
19003;DHT22;9634;51.040;13.794;2023-01-19T14:46:58;10.20;22.00
19003;DHT22;9634;51.040;13.794;2023-01-19T14:52:05;10.80;21.10
19003;DHT22;9634;51.040;13.794;2023-01-19T14:57:10;9.70;22.70
19003;DHT22;9634;51.040;13.794;2023-01-19T15:02:13;7.50;25.60
19003;DHT22;9634;51.040;13.794;2023-01-19T15:07:18;6.10;29.10
19003;DHT22;9634;51.040;13.794;2023-01-19T15:12:21;5.20;32.10
19003;DHT22;9634;51.040;13.794;2023-01-19T15:17:25;4.40;35.30
19003;DHT22;9634;51.040;13.794;2023-01-19T15:22:29;3.80;42.10
19003;DHT22;9634;51.040;13.794;2023-01-19T15:27:31;3.30;52.90
19003;DHT22;9634;51.040;13.794;2023-01-19T15:32:33;2.80;67.20
19003;DHT22;9634;51.040;13.794;2023-01-19T15:37:37;2.50;81.80
19003;DHT22;9634;51.040;13.794;2023-01-19T15:42:40;2.30;94.90
19003;DHT22;9634;51.040;13.794;2023-01-19T15:47:42;2.00;99.90
19003;DHT22;9634;51.040;13.794;2023-01-19T15:52:46;1.70;99.90
19003;DHT22;9634;51.040;13.794;2023-01-19T15:57:48;1.40;99.90
19003;DHT22;9634;51.040;13.794;2023-01-19T16:02:50;1.30;99.90
19003;DHT22;9634;51.040;13.794;2023-01-19T16:07:54;1.30;99.90
19003;DHT22;9634;51.040;13.794;2023-01-19T16:12:56;1.20;99.90
19003;DHT22;9634;51.040;13.794;2023-01-19T16:17:58;1.40;99.90
19003;DHT22;9634;51.040;13.794;2023-01-19T16:23:02;1.60;99.90
19003;DHT22;9634;51.040;13.794;2023-01-19T16:28:05;1.70;99.90
19003;DHT22;9634;51.040;13.794;2023-01-19T16:33:08;1.80;99.90
19003;DHT22;9634;51.040;13.794;2023-01-19T16:38:14;1.70;99.90
19003;DHT22;9634;51.040;13.794;2023-01-19T16:43:16;1.60;99.90
19003;DHT22;9634;51.040;13.794;2023-01-19T16:48:19;1.70;99.90
19003;DHT22;9634;51.040;13.794;2023-01-19T16:53:22;1.60;99.90
19003;DHT22;9634;51.040;13.794;2023-01-19T16:58:25;1.80;99.90
19003;DHT22;9634;51.040;13.794;2023-01-19T17:03:27;2.00;99.90
19003;DHT22;9634;51.040;13.794;2023-01-19T17:08:31;2.00;99.90
19003;DHT22;9634;51.040;13.794;2023-01-19T17:13:33;1.80;99.90
19003;DHT22;9634;51.040;13.794;2023-01-19T17:18:36;1.80;99.90
19003;DHT22;9634;51.040;13.794;2023-01-19T17:23:42;1.90;99.90
19003;DHT22;9634;51.040;13.794;2023-01-19T17:28:45;2.10;99.90
19003;DHT22;9634;51.040;13.794;2023-01-19T17:33:49;2.10;99.90
19003;DHT22;9634;51.040;13.794;2023-01-19T17:38:53;1.70;99.90
19003;DHT22;9634;51.040;13.794;2023-01-19T17:43:56;1.60;99.90
19003;DHT22;9634;51.040;13.794;2023-01-19T17:49:01;1.80;99.90
19003;DHT22;9634;51.040;13.794;2023-01-19T17:54:05;1.90;99.90
19003;DHT22;9634;51.040;13.794;2023-01-19T17:59:07;1.90;99.90
19003;DHT22;9634;51.040;13.794;2023-01-19T18:04:10;1.90;99.90
19003;DHT22;9634;51.040;13.794;2023-01-19T18:09:13;1.90;99.90
19003;DHT22;9634;51.040;13.794;2023-01-19T18:14:15;1.80;99.90
19003;DHT22;9634;51.040;13.794;2023-01-19T18:19:18;1.70;99.90
19003;DHT22;9634;51.040;13.794;2023-01-19T18:24:23;1.60;99.90
19003;DHT22;9634;51.040;13.794;2023-01-19T18:29:25;1.50;99.90
19003;DHT22;9634;51.040;13.794;2023-01-19T18:34:28;1.50;99.90
19003;DHT22;9634;51.040;13.794;2023-01-19T18:39:31;1.50;99.90
19003;DHT22;9634;51.040;13.794;2023-01-19T18:44:33;1.60;99.90
19003;DHT22;9634;51.040;13.794;2023-01-19T18:49:36;1.60;99.90
19003;DHT22;9634;51.040;13.794;2023-01-19T18:54:39;1.40;99.90
19003;DHT22;9634;51.040;13.794;2023-01-19T19:00:00;1.50;99.90
19003;DHT22;9634;51.040;13.794;2023-01-19T19:05:03;1.50;99.90
19003;DHT22;9634;51.040;13.794;2023-01-19T19:10:08;1.70;99.90
19003;DHT22;9634;51.040;13.794;2023-01-19T19:15:11;1.80;99.90
19003;DHT22;9634;51.040;13.794;2023-01-19T19:20:13;1.90;99.90
19003;DHT22;9634;51.040;13.794;2023-01-19T19:25:18;1.90;99.90
19003;DHT22;9634;51.040;13.794;2023-01-19T19:30:20;1.80;99.90
19003;DHT22;9634;51.040;13.794;2023-01-19T19:35:23;2.00;99.90
19003;DHT22;9634;51.040;13.794;2023-01-19T19:40:27;2.00;99.90
19003;DHT22;9634;51.040;13.794;2023-01-19T19:45:29;1.80;99.90
19003;DHT22;9634;51.040;13.794;2023-01-19T19:50:33;1.80;99.90
19003;DHT22;9634;51.040;13.794;2023-01-19T19:55:37;1.80;99.90
19003;DHT22;9634;51.040;13.794;2023-01-19T20:00:39;2.00;99.90
19003;DHT22;9634;51.040;13.794;2023-01-19T20:05:45;2.20;99.90
19003;DHT22;9634;51.040;13.794;2023-01-19T20:10:49;2.20;99.90
19003;DHT22;9634;51.040;13.794;2023-01-19T20:15:52;2.10;99.90
19003;DHT22;9634;51.040;13.794;2023-01-19T20:20:54;2.20;99.90
19003;DHT22;9634;51.040;13.794;2023-01-19T20:25:57;2.30;99.90
19003;DHT22;9634;51.040;13.794;2023-01-19T20:31:09;2.30;99.90
19003;DHT22;9634;51.040;13.794;2023-01-19T20:36:12;2.30;99.90
19003;DHT22;9634;51.040;13.794;2023-01-19T20:41:17;2.30;99.90
19003;DHT22;9634;51.040;13.794;2023-01-19T20:46:20;2.30;99.90
19003;DHT22;9634;51.040;13.794;2023-01-19T20:51:22;2.30;99.90
19003;DHT22;9634;51.040;13.794;2023-01-19T20:56:27;2.30;99.90
19003;DHT22;9634;51.040;13.794;2023-01-19T21:01:30;2.30;99.90
19003;DHT22;9634;51.040;13.794;2023-01-19T21:06:32;2.40;99.90
19003;DHT22;9634;51.040;13.794;2023-01-19T21:11:37;2.40;99.90
19003;DHT22;9634;51.040;13.794;2023-01-19T21:16:40;2.30;99.90
19003;DHT22;9634;51.040;13.794;2023-01-19T21:21:43;2.30;99.90
19003;DHT22;9634;51.040;13.794;2023-01-19T21:26:47;2.20;99.90
19003;DHT22;9634;51.040;13.794;2023-01-19T21:31:49;2.10;99.90
19003;DHT22;9634;51.040;13.794;2023-01-19T21:36:51;2.10;99.90
19003;DHT22;9634;51.040;13.794;2023-01-19T21:41:55;2.10;99.90
19003;DHT22;9634;51.040;13.794;2023-01-19T21:46:57;2.20;99.90
19003;DHT22;9634;51.040;13.794;2023-01-19T21:52:00;2.10;99.90
19003;DHT22;9634;51.040;13.794;2023-01-19T21:57:03;2.10;99.90
19003;DHT22;9634;51.040;13.794;2023-01-19T22:02:07;2.30;99.90
19003;DHT22;9634;51.040;13.794;2023-01-19T22:07:10;2.20;99.90
19003;DHT22;9634;51.040;13.794;2023-01-19T22:12:14;2.10;99.90
19003;DHT22;9634;51.040;13.794;2023-01-19T22:17:16;2.10;99.90
19003;DHT22;9634;51.040;13.794;2023-01-19T22:22:18;2.10;99.90
19003;DHT22;9634;51.040;13.794;2023-01-19T22:27:22;2.10;99.90
19003;DHT22;9634;51.040;13.794;2023-01-19T22:32:25;2.10;99.90
19003;DHT22;9634;51.040;13.794;2023-01-19T22:37:27;2.10;99.90
19003;DHT22;9634;51.040;13.794;2023-01-19T22:42:31;2.10;99.90
19003;DHT22;9634;51.040;13.794;2023-01-19T22:47:33;2.20;99.90
19003;DHT22;9634;51.040;13.794;2023-01-19T22:52:35;2.10;99.90
19003;DHT22;9634;51.040;13.794;2023-01-19T22:57:39;2.10;99.90
19003;DHT22;9634;51.040;13.794;2023-01-19T23:02:41;2.20;99.90
19003;DHT22;9634;51.040;13.794;2023-01-19T23:07:44;2.20;99.90
19003;DHT22;9634;51.040;13.794;2023-01-19T23:12:47;2.20;99.90
19003;DHT22;9634;51.040;13.794;2023-01-19T23:17:50;2.10;99.90
19003;DHT22;9634;51.040;13.794;2023-01-19T23:22:53;2.10;99.90
19003;DHT22;9634;51.040;13.794;2023-01-19T23:27:58;2.20;99.90
19003;DHT22;9634;51.040;13.794;2023-01-19T23:33:00;2.20;99.90
19003;DHT22;9634;51.040;13.794;2023-01-19T23:38:02;2.10;99.90
19003;DHT22;9634;51.040;13.794;2023-01-19T23:43:06;2.10;99.90
19003;DHT22;9634;51.040;13.794;2023-01-19T23:48:08;2.20;99.90
19003;DHT22;9634;51.040;13.794;2023-01-19T23:53:10;2.30;99.90
19003;DHT22;9634;51.040;13.794;2023-01-19T23:58:14;2.30;99.90
